Terminal Aerodrome Forecast
Issued by NWS

Home | Current Version | Previous Version | Text Only | Print | Product List | Glossary On
Versions: 1 2 3 4 5 6 7 8 9 10 11 12 13 14 15 16 17 18 19 20 21
337
FTUS41 KGYX 242018 AAA
TAFRKD
TAF AMD
KRKD 242018Z 2420/2518 06007KT 6SM BR OVC006
     FM250000 00000KT 1/2SM FG OVC004
     FM250600 00000KT 1/4SM FG OVC001
     FM251300 17005KT P6SM BKN015
      AMD LTD TO CLD VIS AND WIND=

USA.gov is the U.S. government's official web portal to all federal, state and local government web resources and services.